sensor_id;sensor_type;location;lat;lon;timestamp;pressure;altitude;pressure_sealevel;temperature;humidity
6938;BME280;40040;42.706;23.372;2023-08-31T00:02:23;149495.72;;;21.58;75.93
6938;BME280;40040;42.706;23.372;2023-08-31T00:04:51;149487.00;;;21.55;76.56
6938;BME280;40040;42.706;23.372;2023-08-31T00:07:21;149480.78;;;21.52;77.19
6938;BME280;40040;42.706;23.372;2023-08-31T00:09:47;149495.72;;;21.58;77.25
6938;BME280;40040;42.706;23.372;2023-08-31T00:12:15;149489.47;;;21.56;76.95
6938;BME280;40040;42.706;23.372;2023-08-31T00:14:42;149483.25;;;21.53;77.38
6938;BME280;40040;42.706;23.372;2023-08-31T00:17:09;149478.31;;;21.51;77.97
6938;BME280;40040;42.706;23.372;2023-08-31T00:19:36;149450.94;;;21.40;78.77
6938;BME280;40040;42.706;23.372;2023-08-31T00:22:03;149450.94;;;21.40;79.57
6938;BME280;40040;42.706;23.372;2023-08-31T00:24:31;149423.56;;;21.29;80.46
6938;BME280;40040;42.706;23.372;2023-08-31T00:27:02;149407.41;;;21.22;81.21
6938;BME280;40040;42.706;23.372;2023-08-31T00:29:29;149377.56;;;21.10;81.79
6938;BME280;40040;42.706;23.372;2023-08-31T00:31:56;149343.97;;;20.97;82.77
6938;BME280;40040;42.706;23.372;2023-08-31T00:34:23;149232.09;;;20.52;83.47
6938;BME280;40040;42.706;23.372;2023-08-31T00:36:50;149291.75;;;20.76;84.83
6938;BME280;40040;42.706;23.372;2023-08-31T00:39:17;149284.31;;;20.73;84.98
6938;BME280;40040;42.706;23.372;2023-08-31T00:41:47;149279.31;;;20.71;84.22
6938;BME280;40040;42.706;23.372;2023-08-31T00:44:15;149264.38;;;20.65;85.04
6938;BME280;40040;42.706;23.372;2023-08-31T00:46:42;149239.53;;;20.55;84.81
6938;BME280;40040;42.706;23.372;2023-08-31T00:49:10;149261.91;;;20.64;84.91
6938;BME280;40040;42.706;23.372;2023-08-31T00:51:38;149256.94;;;20.62;84.92
6938;BME280;40040;42.706;23.372;2023-08-31T00:54:06;149189.81;;;20.35;85.01
6938;BME280;40040;42.706;23.372;2023-08-31T00:56:32;149242.00;;;20.56;85.06
6938;BME280;40040;42.706;23.372;2023-08-31T00:59:01;149229.59;;;20.51;85.11
6938;BME280;40040;42.706;23.372;2023-08-31T01:01:35;149230.84;;;20.51;85.35
6938;BME280;40040;42.706;23.372;2023-08-31T01:04:23;149220.88;;;20.47;85.31
6938;BME280;40040;42.706;23.372;2023-08-31T01:06:55;149217.16;;;20.46;85.57
6938;BME280;40040;42.706;23.372;2023-08-31T01:09:33;149214.69;;;20.45;85.85
6938;BME280;40040;42.706;23.372;2023-08-31T01:12:04;149206.00;;;20.41;86.20
6938;BME280;40040;42.706;23.372;2023-08-31T01:14:42;149193.56;;;20.36;86.37
6938;BME280;40040;42.706;23.372;2023-08-31T01:17:12;149189.81;;;20.35;86.70
6938;BME280;40040;42.706;23.372;2023-08-31T01:19:48;149179.91;;;20.31;87.20
6938;BME280;40040;42.706;23.372;2023-08-31T01:22:24;149173.66;;;20.28;87.27
6938;BME280;40040;42.706;23.372;2023-08-31T01:24:56;149162.50;;;20.24;87.15
6938;BME280;40040;42.706;23.372;2023-08-31T01:27:23;149166.22;;;20.25;87.05
6938;BME280;40040;42.706;23.372;2023-08-31T01:29:50;149157.53;;;20.22;87.10
6938;BME280;40040;42.706;23.372;2023-08-31T01:32:18;149145.09;;;20.17;87.38
6938;BME280;40040;42.706;23.372;2023-08-31T01:34:45;149094.13;;;19.96;87.63
6938;BME280;40040;42.706;23.372;2023-08-31T01:37:16;149136.34;;;20.13;87.51
6938;BME280;40040;42.706;23.372;2023-08-31T01:39:49;149122.69;;;20.07;88.17
6938;BME280;40040;42.706;23.372;2023-08-31T01:42:20;149064.31;;;19.84;89.16
6938;BME280;40040;42.706;23.372;2023-08-31T01:44:48;149087.88;;;19.93;89.49
6938;BME280;40040;42.706;23.372;2023-08-31T01:47:16;149075.47;;;19.88;89.93
6938;BME280;40040;42.706;23.372;2023-08-31T01:49:44;149034.47;;;19.72;89.44
6938;BME280;40040;42.706;23.372;2023-08-31T01:52:11;149095.34;;;19.96;88.98
6938;BME280;40040;42.706;23.372;2023-08-31T01:54:38;149090.41;;;19.94;89.25
6938;BME280;40040;42.706;23.372;2023-08-31T01:57:05;149091.59;;;19.95;88.91
6938;BME280;40040;42.706;23.372;2023-08-31T01:59:33;149091.59;;;19.95;88.97
6938;BME280;40040;42.706;23.372;2023-08-31T02:02:01;149080.44;;;19.90;89.00
6938;BME280;40040;42.706;23.372;2023-08-31T02:04:27;149070.50;;;19.86;89.26
6938;BME280;40040;42.706;23.372;2023-08-31T02:06:54;148946.31;;;19.36;89.71
6938;BME280;40040;42.706;23.372;2023-08-31T02:09:21;149045.66;;;19.76;90.16
6938;BME280;40040;42.706;23.372;2023-08-31T02:11:48;149044.41;;;19.76;89.90
6938;BME280;40040;42.706;23.372;2023-08-31T02:14:15;149039.44;;;19.74;90.20
6938;BME280;40040;42.706;23.372;2023-08-31T02:16:43;149038.22;;;19.73;90.32
6938;BME280;40040;42.706;23.372;2023-08-31T02:19:10;149028.28;;;19.69;90.77
6938;BME280;40040;42.706;23.372;2023-08-31T02:21:36;148966.16;;;19.44;90.41
6938;BME280;40040;42.706;23.372;2023-08-31T02:24:04;149017.13;;;19.65;90.82
6938;BME280;40040;42.706;23.372;2023-08-31T02:26:31;149023.31;;;19.67;90.95
6938;BME280;40040;42.706;23.372;2023-08-31T02:28:58;149013.34;;;19.63;91.43
6938;BME280;40040;42.706;23.372;2023-08-31T02:31:25;149003.44;;;19.59;92.00
6938;BME280;40040;42.706;23.372;2023-08-31T02:33:53;148994.75;;;19.56;92.02
6938;BME280;40040;42.706;23.372;2023-08-31T02:36:20;148982.34;;;19.51;92.74
6938;BME280;40040;42.706;23.372;2023-08-31T02:38:47;148976.09;;;19.48;92.65
6938;BME280;40040;42.706;23.372;2023-08-31T02:41:15;148966.16;;;19.44;92.98
6938;BME280;40040;42.706;23.372;2023-08-31T02:43:42;148968.66;;;19.45;93.41
6938;BME280;40040;42.706;23.372;2023-08-31T02:46:09;148959.97;;;19.42;93.43
6938;BME280;40040;42.706;23.372;2023-08-31T02:48:36;148948.75;;;19.37;93.56
6938;BME280;40040;42.706;23.372;2023-08-31T02:51:04;148955.00;;;19.40;93.56
6938;BME280;40040;42.706;23.372;2023-08-31T02:53:31;148946.31;;;19.36;94.00
6938;BME280;40040;42.706;23.372;2023-08-31T02:55:58;148870.53;;;19.05;94.49
6938;BME280;40040;42.706;23.372;2023-08-31T02:58:25;148848.19;;;18.96;95.44
6938;BME280;40040;42.706;23.372;2023-08-31T03:00:51;148812.16;;;18.82;97.02
6938;BME280;40040;42.706;23.372;2023-08-31T03:03:19;148839.50;;;18.93;98.00
6938;BME280;40040;42.706;23.372;2023-08-31T03:05:46;148838.22;;;18.92;98.06
6938;BME280;40040;42.706;23.372;2023-08-31T03:08:14;148836.97;;;18.92;98.10
6938;BME280;40040;42.706;23.372;2023-08-31T03:10:41;148846.94;;;18.96;97.63
6938;BME280;40040;42.706;23.372;2023-08-31T03:13:07;148768.72;;;18.64;97.96
6938;BME280;40040;42.706;23.372;2023-08-31T03:15:34;148765.00;;;18.63;98.18
6938;BME280;40040;42.706;23.372;2023-08-31T03:18:01;148830.78;;;18.89;98.17
6938;BME280;40040;42.706;23.372;2023-08-31T03:20:28;148836.97;;;18.92;98.37
6938;BME280;40040;42.706;23.372;2023-08-31T03:22:54;148832.00;;;18.90;98.28
6938;BME280;40040;42.706;23.372;2023-08-31T03:25:23;148767.47;;;18.64;98.66
6938;BME280;40040;42.706;23.372;2023-08-31T03:27:50;148822.09;;;18.86;99.20
6938;BME280;40040;42.706;23.372;2023-08-31T03:30:17;148817.13;;;18.84;99.02
6938;BME280;40040;42.706;23.372;2023-08-31T03:32:44;148824.56;;;18.87;98.23
6938;BME280;40040;42.706;23.372;2023-08-31T03:35:11;148808.44;;;18.80;98.78
6938;BME280;40040;42.706;23.372;2023-08-31T03:37:38;148716.59;;;18.43;99.05
6938;BME280;40040;42.706;23.372;2023-08-31T03:40:06;148757.56;;;18.60;99.38
6938;BME280;40040;42.706;23.372;2023-08-31T03:42:34;148742.66;;;18.54;100.00
6938;BME280;40040;42.706;23.372;2023-08-31T03:45:01;148700.41;;;18.37;100.00
6938;BME280;40040;42.706;23.372;2023-08-31T03:47:29;148750.09;;;18.57;100.00
6938;BME280;40040;42.706;23.372;2023-08-31T03:49:56;148752.59;;;18.58;100.00
6938;BME280;40040;42.706;23.372;2023-08-31T03:52:22;148738.94;;;18.52;100.00
6938;BME280;40040;42.706;23.372;2023-08-31T03:54:50;148601.16;;;17.96;100.00
6938;BME280;40040;42.706;23.372;2023-08-31T03:57:17;148633.44;;;18.10;100.00
6938;BME280;40040;42.706;23.372;2023-08-31T03:59:45;148671.88;;;18.25;100.00
6938;BME280;40040;42.706;23.372;2023-08-31T04:02:12;148676.81;;;18.27;100.00
6938;BME280;40040;42.706;23.372;2023-08-31T04:04:39;148686.75;;;18.31;100.00
6938;BME280;40040;42.706;23.372;2023-08-31T04:07:06;148558.97;;;17.79;100.00
6938;BME280;40040;42.706;23.372;2023-08-31T04:09:33;148643.31;;;18.14;100.00
6938;BME280;40040;42.706;23.372;2023-08-31T04:12:00;148685.50;;;18.31;100.00
6938;BME280;40040;42.706;23.372;2023-08-31T04:14:27;148665.66;;;18.23;100.00
6938;BME280;40040;42.706;23.372;2023-08-31T04:16:55;148656.97;;;18.19;100.00
6938;BME280;40040;42.706;23.372;2023-08-31T04:19:22;148655.72;;;18.19;100.00
6938;BME280;40040;42.706;23.372;2023-08-31T04:21:49;148684.28;;;18.30;100.00
6938;BME280;40040;42.706;23.372;2023-08-31T04:24:16;148695.44;;;18.35;100.00
6938;BME280;40040;42.706;23.372;2023-08-31T04:26:43;148715.38;;;18.43;100.00
6938;BME280;40040;42.706;23.372;2023-08-31T04:29:10;148738.94;;;18.52;100.00
6938;BME280;40040;42.706;23.372;2023-08-31T04:31:37;148745.16;;;18.55;100.00
6938;BME280;40040;42.706;23.372;2023-08-31T04:34:06;148746.38;;;18.55;100.00
6938;BME280;40040;42.706;23.372;2023-08-31T04:36:32;148753.84;;;18.58;100.00
6938;BME280;40040;42.706;23.372;2023-08-31T04:38:59;148710.41;;;18.41;100.00
6938;BME280;40040;42.706;23.372;2023-08-31T04:41:26;148782.38;;;18.70;100.00
6938;BME280;40040;42.706;23.372;2023-08-31T04:43:53;148802.22;;;18.78;100.00
6938;BME280;40040;42.706;23.372;2023-08-31T04:46:20;148699.16;;;18.36;100.00
6938;BME280;40040;42.706;23.372;2023-08-31T04:48:46;148827.06;;;18.88;100.00
6938;BME280;40040;42.706;23.372;2023-08-31T04:51:30;148844.47;;;18.95;100.00
6938;BME280;40040;42.706;23.372;2023-08-31T04:53:57;148876.72;;;19.08;100.00
6938;BME280;40040;42.706;23.372;2023-08-31T04:56:24;148911.47;;;19.22;98.68
6938;BME280;40040;42.706;23.372;2023-08-31T04:58:51;148948.75;;;19.37;96.84
6938;BME280;40040;42.706;23.372;2023-08-31T05:01:18;148973.63;;;19.47;96.16
6938;BME280;40040;42.706;23.372;2023-08-31T05:03:45;148913.94;;;19.23;94.56
6938;BME280;40040;42.706;23.372;2023-08-31T05:06:12;148981.09;;;19.50;93.98
6938;BME280;40040;42.706;23.372;2023-08-31T05:08:41;148993.50;;;19.55;93.36
6938;BME280;40040;42.706;23.372;2023-08-31T05:11:08;149013.34;;;19.63;92.61
6938;BME280;40040;42.706;23.372;2023-08-31T05:13:35;149030.75;;;19.70;92.84
6938;BME280;40040;42.706;23.372;2023-08-31T05:16:03;149049.38;;;19.78;93.12
6938;BME280;40040;42.706;23.372;2023-08-31T05:18:30;149074.22;;;19.88;92.40
6938;BME280;40040;42.706;23.372;2023-08-31T05:20:57;149075.47;;;19.88;91.90
6938;BME280;40040;42.706;23.372;2023-08-31T05:23:24;149097.84;;;19.97;92.06
6938;BME280;40040;42.706;23.372;2023-08-31T05:25:52;149086.63;;;19.93;91.30
6938;BME280;40040;42.706;23.372;2023-08-31T05:28:22;149069.25;;;19.86;92.00
6938;BME280;40040;42.706;23.372;2023-08-31T05:30:49;149014.59;;;19.64;92.02
6938;BME280;40040;42.706;23.372;2023-08-31T05:33:17;149087.88;;;19.93;91.98
6938;BME280;40040;42.706;23.372;2023-08-31T05:35:43;149090.41;;;19.94;91.65
6938;BME280;40040;42.706;23.372;2023-08-31T05:38:10;149123.94;;;20.08;91.13
6938;BME280;40040;42.706;23.372;2023-08-31T05:40:37;149167.47;;;20.26;89.22
6938;BME280;40040;42.706;23.372;2023-08-31T05:43:05;149217.16;;;20.46;88.53
6938;BME280;40040;42.706;23.372;2023-08-31T05:45:33;149228.38;;;20.50;87.84
6938;BME280;40040;42.706;23.372;2023-08-31T05:47:59;149327.75;;;20.90;86.19
6938;BME280;40040;42.706;23.372;2023-08-31T05:50:27;149373.84;;;21.09;85.20
6938;BME280;40040;42.706;23.372;2023-08-31T05:52:56;149411.13;;;21.24;85.26
6938;BME280;40040;42.706;23.372;2023-08-31T05:55:23;149457.16;;;21.43;83.24
6938;BME280;40040;42.706;23.372;2023-08-31T05:57:50;149509.38;;;21.64;80.93
6938;BME280;40040;42.706;23.372;2023-08-31T06:00:19;149561.66;;;21.85;80.49
6938;BME280;40040;42.706;23.372;2023-08-31T06:02:46;149575.34;;;21.90;79.04
6938;BME280;40040;42.706;23.372;2023-08-31T06:05:12;149659.97;;;22.24;78.59
6938;BME280;40040;42.706;23.372;2023-08-31T06:07:41;149717.19;;;22.48;78.39
6938;BME280;40040;42.706;23.372;2023-08-31T06:10:09;149728.41;;;22.52;76.05
6938;BME280;40040;42.706;23.372;2023-08-31T06:12:36;149811.81;;;22.86;75.34
6938;BME280;40040;42.706;23.372;2023-08-31T06:15:03;149841.72;;;22.98;74.31
6938;BME280;40040;42.706;23.372;2023-08-31T06:17:32;149864.09;;;23.07;73.40
6938;BME280;40040;42.706;23.372;2023-08-31T06:20:01;149856.66;;;23.04;72.79
6938;BME280;40040;42.706;23.372;2023-08-31T06:22:30;149871.59;;;23.10;74.01
6938;BME280;40040;42.706;23.372;2023-08-31T06:24:57;149917.69;;;23.28;71.95
6938;BME280;40040;42.706;23.372;2023-08-31T06:27:24;149976.19;;;23.52;71.50
6938;BME280;40040;42.706;23.372;2023-08-31T06:29:51;150039.75;;;23.78;70.27
6938;BME280;40040;42.706;23.372;2023-08-31T06:32:18;150053.47;;;23.83;68.84
6938;BME280;40040;42.706;23.372;2023-08-31T06:34:47;150136.94;;;24.17;67.31
6938;BME280;40040;42.706;23.372;2023-08-31T06:37:14;150170.56;;;24.30;67.98
6938;BME280;40040;42.706;23.372;2023-08-31T06:39:40;150232.88;;;24.56;66.41
6938;BME280;40040;42.706;23.372;2023-08-31T06:42:07;150310.19;;;24.87;62.86
6938;BME280;40040;42.706;23.372;2023-08-31T06:44:34;150362.56;;;25.08;61.68
6938;BME280;40040;42.706;23.372;2023-08-31T06:47:01;150408.66;;;25.26;61.08
6938;BME280;40040;42.706;23.372;2023-08-31T06:49:28;150462.34;;;25.48;60.41
6938;BME280;40040;42.706;23.372;2023-08-31T06:52:00;150527.19;;;25.74;58.19
6938;BME280;40040;42.706;23.372;2023-08-31T06:54:27;150562.09;;;25.88;57.75
6938;BME280;40040;42.706;23.372;2023-08-31T06:56:54;150595.78;;;26.02;55.89
6938;BME280;40040;42.706;23.372;2023-08-31T06:59:21;150520.97;;;25.72;56.74
6938;BME280;40040;42.706;23.372;2023-08-31T07:01:48;150514.72;;;25.69;57.05
6938;BME280;40040;42.706;23.372;2023-08-31T07:04:15;150542.16;;;25.80;57.15
6938;BME280;40040;42.706;23.372;2023-08-31T07:06:42;150577.09;;;25.94;56.86
6938;BME280;40040;42.706;23.372;2023-08-31T07:09:10;150599.56;;;26.03;56.96
6938;BME280;40040;42.706;23.372;2023-08-31T07:11:37;150654.47;;;26.25;56.30
6938;BME280;40040;42.706;23.372;2023-08-31T07:14:04;150689.41;;;26.39;55.99
6938;BME280;40040;42.706;23.372;2023-08-31T07:16:31;150709.34;;;26.47;55.34
6938;BME280;40040;42.706;23.372;2023-08-31T07:18:58;150711.81;;;26.48;55.38
6938;BME280;40040;42.706;23.372;2023-08-31T07:21:25;150736.81;;;26.58;54.92
6938;BME280;40040;42.706;23.372;2023-08-31T07:23:52;150700.63;;;26.44;54.13
6938;BME280;40040;42.706;23.372;2023-08-31T07:26:21;150738.03;;;26.59;54.70
6938;BME280;40040;42.706;23.372;2023-08-31T07:28:48;150775.53;;;26.74;54.58
6938;BME280;40040;42.706;23.372;2023-08-31T07:31:15;150748.03;;;26.63;53.91
6938;BME280;40040;42.706;23.372;2023-08-31T07:33:42;150761.81;;;26.69;54.07
6938;BME280;40040;42.706;23.372;2023-08-31T07:36:08;150711.81;;;26.48;53.64
6938;BME280;40040;42.706;23.372;2023-08-31T07:38:36;150775.53;;;26.74;53.41
6938;BME280;40040;42.706;23.372;2023-08-31T07:41:02;150841.66;;;27.01;53.53
6938;BME280;40040;42.706;23.372;2023-08-31T07:43:32;150758.06;;;26.67;53.83
6938;BME280;40040;42.706;23.372;2023-08-31T07:45:58;150775.53;;;26.74;53.95
6938;BME280;40040;42.706;23.372;2023-08-31T07:48:25;150812.97;;;26.89;53.19
6938;BME280;40040;42.706;23.372;2023-08-31T07:50:52;150861.66;;;27.09;51.40
6938;BME280;40040;42.706;23.372;2023-08-31T07:53:19;150804.22;;;26.86;52.51
6938;BME280;40040;42.706;23.372;2023-08-31T07:55:53;150865.38;;;27.10;51.65
6938;BME280;40040;42.706;23.372;2023-08-31T07:58:20;150835.44;;;26.98;51.31
6938;BME280;40040;42.706;23.372;2023-08-31T08:00:49;150874.13;;;27.14;51.68
6938;BME280;40040;42.706;23.372;2023-08-31T08:03:15;150924.06;;;27.34;51.19
6938;BME280;40040;42.706;23.372;2023-08-31T08:05:42;150976.50;;;27.55;50.44
6938;BME280;40040;42.706;23.372;2023-08-31T08:08:09;150989.00;;;27.60;51.06
6938;BME280;40040;42.706;23.372;2023-08-31T08:10:36;151035.22;;;27.79;49.80
6938;BME280;40040;42.706;23.372;2023-08-31T08:13:03;151038.97;;;27.80;48.86
6938;BME280;40040;42.706;23.372;2023-08-31T08:15:30;151021.47;;;27.73;49.40
6938;BME280;40040;42.706;23.372;2023-08-31T08:17:59;150912.88;;;27.29;49.38
6938;BME280;40040;42.706;23.372;2023-08-31T08:20:27;151004.00;;;27.66;50.58
6938;BME280;40040;42.706;23.372;2023-08-31T08:22:54;151017.75;;;27.71;49.52
6938;BME280;40040;42.706;23.372;2023-08-31T08:25:21;151096.47;;;28.03;49.34
6938;BME280;40040;42.706;23.372;2023-08-31T08:27:48;151123.91;;;28.14;48.26
6938;BME280;40040;42.706;23.372;2023-08-31T08:30:15;151168.91;;;28.32;47.46
6938;BME280;40040;42.706;23.372;2023-08-31T08:32:42;151261.41;;;28.69;47.24
6938;BME280;40040;42.706;23.372;2023-08-31T08:35:10;151363.88;;;29.11;46.61
6938;BME280;40040;42.706;23.372;2023-08-31T08:37:37;151428.88;;;29.37;42.95
6938;BME280;40040;42.706;23.372;2023-08-31T08:40:05;151457.59;;;29.48;41.29
6938;BME280;40040;42.706;23.372;2023-08-31T08:42:32;151547.69;;;29.84;40.52
6938;BME280;40040;42.706;23.372;2023-08-31T08:45:08;151633.97;;;30.19;40.09
6938;BME280;40040;42.706;23.372;2023-08-31T08:47:35;151706.53;;;30.48;38.31
6938;BME280;40040;42.706;23.372;2023-08-31T08:50:03;151796.63;;;30.84;38.61
6938;BME280;40040;42.706;23.372;2023-08-31T08:52:32;151861.66;;;31.11;36.69
6938;BME280;40040;42.706;23.372;2023-08-31T08:55:01;151897.97;;;31.25;34.92
6938;BME280;40040;42.706;23.372;2023-08-31T08:57:28;151871.69;;;31.15;33.62
6938;BME280;40040;42.706;23.372;2023-08-31T08:59:57;151960.59;;;31.50;33.00
6938;BME280;40040;42.706;23.372;2023-08-31T09:02:24;151881.72;;;31.19;34.66
6938;BME280;40040;42.706;23.372;2023-08-31T09:04:51;151906.72;;;31.29;34.64
6938;BME280;40040;42.706;23.372;2023-08-31T09:07:20;151953.06;;;31.47;36.84
6938;BME280;40040;42.706;23.372;2023-08-31T09:09:52;151991.84;;;31.63;37.05
6938;BME280;40040;42.706;23.372;2023-08-31T09:12:22;152063.25;;;31.91;36.51
6938;BME280;40040;42.706;23.372;2023-08-31T09:15:00;152147.13;;;32.25;35.79
6938;BME280;40040;42.706;23.372;2023-08-31T09:17:37;152092.03;;;32.03;35.96
6938;BME280;40040;42.706;23.372;2023-08-31T09:20:05;152100.78;;;32.07;34.76
6938;BME280;40040;42.706;23.372;2023-08-31T09:22:33;152095.81;;;32.05;33.42
6938;BME280;40040;42.706;23.372;2023-08-31T09:25:02;152169.69;;;32.34;32.09
6938;BME280;40040;42.706;23.372;2023-08-31T09:27:29;152173.44;;;32.36;31.96
6938;BME280;40040;42.706;23.372;2023-08-31T09:29:58;152124.59;;;32.16;31.55
6938;BME280;40040;42.706;23.372;2023-08-31T09:32:25;152187.22;;;32.41;31.94
6938;BME280;40040;42.706;23.372;2023-08-31T09:34:52;152227.28;;;32.57;31.64
6938;BME280;40040;42.706;23.372;2023-08-31T09:37:19;152244.81;;;32.64;31.48
6938;BME280;40040;42.706;23.372;2023-08-31T09:39:46;152059.50;;;31.90;32.63
6938;BME280;40040;42.706;23.372;2023-08-31T09:42:14;152069.53;;;31.94;33.38
6938;BME280;40040;42.706;23.372;2023-08-31T09:44:43;152105.78;;;32.09;32.11
6938;BME280;40040;42.706;23.372;2023-08-31T09:47:11;152108.34;;;32.10;32.67
6938;BME280;40040;42.706;23.372;2023-08-31T09:49:41;152128.34;;;32.18;31.40
6938;BME280;40040;42.706;23.372;2023-08-31T09:52:09;152147.13;;;32.25;32.63
6938;BME280;40040;42.706;23.372;2023-08-31T09:54:36;152252.38;;;32.67;30.80
6938;BME280;40040;42.706;23.372;2023-08-31T09:57:04;152278.63;;;32.78;30.58
6938;BME280;40040;42.706;23.372;2023-08-31T09:59:33;152297.41;;;32.85;30.72
6938;BME280;40040;42.706;23.372;2023-08-31T10:02:01;152357.56;;;33.10;30.16
6938;BME280;40040;42.706;23.372;2023-08-31T10:04:29;152367.59;;;33.14;29.27
6938;BME280;40040;42.706;23.372;2023-08-31T10:06:57;152491.66;;;33.63;28.36
6938;BME280;40040;42.706;23.372;2023-08-31T10:09:25;152495.44;;;33.65;28.02
6938;BME280;40040;42.706;23.372;2023-08-31T10:11:53;152598.22;;;34.06;27.72
6938;BME280;40040;42.706;23.372;2023-08-31T10:14:21;152699.81;;;34.47;27.65
6938;BME280;40040;42.706;23.372;2023-08-31T10:16:50;152719.84;;;34.55;28.06
6938;BME280;40040;42.706;23.372;2023-08-31T10:19:19;152766.22;;;34.73;28.51
6938;BME280;40040;42.706;23.372;2023-08-31T10:21:46;152778.78;;;34.78;26.87
6938;BME280;40040;42.706;23.372;2023-08-31T10:24:13;152798.81;;;34.86;26.91
6938;BME280;40040;42.706;23.372;2023-08-31T10:26:40;152797.56;;;34.86;26.23
6938;BME280;40040;42.706;23.372;2023-08-31T10:29:25;152763.72;;;34.72;26.17
6938;BME280;40040;42.706;23.372;2023-08-31T10:31:54;152660.91;;;34.31;26.05
6938;BME280;40040;42.706;23.372;2023-08-31T10:34:35;152585.69;;;34.01;26.87
6938;BME280;40040;42.706;23.372;2023-08-31T10:37:19;152737.41;;;34.62;25.33
6938;BME280;40040;42.706;23.372;2023-08-31T10:39:47;152785.03;;;34.81;24.77
6938;BME280;40040;42.706;23.372;2023-08-31T10:42:14;152854.03;;;35.08;24.98
6938;BME280;40040;42.706;23.372;2023-08-31T10:44:42;152839.00;;;35.02;25.08
6938;BME280;40040;42.706;23.372;2023-08-31T10:47:10;152696.06;;;34.45;27.30
6938;BME280;40040;42.706;23.372;2023-08-31T10:49:37;152687.22;;;34.42;26.70
6938;BME280;40040;42.706;23.372;2023-08-31T10:52:18;152492.91;;;33.64;27.67
6938;BME280;40040;42.706;23.372;2023-08-31T10:54:46;152320.03;;;32.94;29.69
6938;BME280;40040;42.706;23.372;2023-08-31T10:57:13;152197.25;;;32.45;29.22
6938;BME280;40040;42.706;23.372;2023-08-31T10:59:43;152155.91;;;32.29;30.00
6938;BME280;40040;42.706;23.372;2023-08-31T11:02:27;152049.44;;;31.86;30.69
6938;BME280;40040;42.706;23.372;2023-08-31T11:04:55;152074.50;;;31.96;30.80
6938;BME280;40040;42.706;23.372;2023-08-31T11:07:24;152015.66;;;31.72;30.76
6938;BME280;40040;42.706;23.372;2023-08-31T11:09:51;152011.91;;;31.71;31.34
6938;BME280;40040;42.706;23.372;2023-08-31T11:12:22;151976.84;;;31.57;32.17
6938;BME280;40040;42.706;23.372;2023-08-31T11:14:49;151975.59;;;31.56;32.76
6938;BME280;40040;42.706;23.372;2023-08-31T11:17:17;152038.19;;;31.81;32.14
6938;BME280;40040;42.706;23.372;2023-08-31T11:19:44;152084.53;;;32.00;31.74
6938;BME280;40040;42.706;23.372;2023-08-31T11:22:11;152159.66;;;32.30;32.20
6938;BME280;40040;42.706;23.372;2023-08-31T11:24:38;152144.59;;;32.24;31.53
6938;BME280;40040;42.706;23.372;2023-08-31T11:27:08;152144.59;;;32.24;31.07
6938;BME280;40040;42.706;23.372;2023-08-31T11:29:37;152178.41;;;32.38;30.74
6938;BME280;40040;42.706;23.372;2023-08-31T11:32:05;152120.84;;;32.15;30.83
6938;BME280;40040;42.706;23.372;2023-08-31T11:34:33;152134.63;;;32.20;30.61
6938;BME280;40040;42.706;23.372;2023-08-31T11:37:00;152067.00;;;31.93;31.13
6938;BME280;40040;42.706;23.372;2023-08-31T11:39:27;152064.53;;;31.92;30.73
6938;BME280;40040;42.706;23.372;2023-08-31T11:41:54;151974.31;;;31.56;32.45
6938;BME280;40040;42.706;23.372;2023-08-31T11:44:22;151899.22;;;31.26;32.44
6938;BME280;40040;42.706;23.372;2023-08-31T11:46:49;151807.91;;;30.89;32.52
6938;BME280;40040;42.706;23.372;2023-08-31T11:49:17;151789.13;;;30.81;35.18
6938;BME280;40040;42.706;23.372;2023-08-31T11:51:46;151746.56;;;30.64;36.10
6938;BME280;40040;42.706;23.372;2023-08-31T11:54:16;151772.81;;;30.75;37.08
6938;BME280;40040;42.706;23.372;2023-08-31T11:56:43;151825.41;;;30.96;35.42
6938;BME280;40040;42.706;23.372;2023-08-31T11:59:12;151846.69;;;31.05;35.34
6938;BME280;40040;42.706;23.372;2023-08-31T12:01:39;151887.94;;;31.21;35.14
6938;BME280;40040;42.706;23.372;2023-08-31T12:04:11;151896.69;;;31.25;35.36
6938;BME280;40040;42.706;23.372;2023-08-31T12:09:07;152061.97;;;31.91;33.11
6938;BME280;40040;42.706;23.372;2023-08-31T12:11:34;152072.00;;;31.95;33.57
6938;BME280;40040;42.706;23.372;2023-08-31T12:14:01;152084.53;;;32.00;32.16
6938;BME280;40040;42.706;23.372;2023-08-31T12:16:33;152035.66;;;31.80;33.21
6938;BME280;40040;42.706;23.372;2023-08-31T12:19:02;152082.03;;;31.99;32.27
6938;BME280;40040;42.706;23.372;2023-08-31T12:21:30;152050.69;;;31.86;33.14
6938;BME280;40040;42.706;23.372;2023-08-31T12:23:57;151986.88;;;31.61;34.13
6938;BME280;40040;42.706;23.372;2023-08-31T12:26:25;151938.06;;;31.41;34.56
6938;BME280;40040;42.706;23.372;2023-08-31T12:28:52;151797.88;;;30.85;34.74
6938;BME280;40040;42.706;23.372;2023-08-31T12:31:19;151675.25;;;30.36;36.08
6938;BME280;40040;42.706;23.372;2023-08-31T12:33:46;151757.78;;;30.69;35.56
6938;BME280;40040;42.706;23.372;2023-08-31T12:36:13;151811.66;;;30.90;36.25
6938;BME280;40040;42.706;23.372;2023-08-31T12:38:40;151846.69;;;31.05;34.97
6938;BME280;40040;42.706;23.372;2023-08-31T12:41:07;151886.72;;;31.21;35.86
6938;BME280;40040;42.706;23.372;2023-08-31T12:43:35;151914.22;;;31.32;34.40
6938;BME280;40040;42.706;23.372;2023-08-31T12:46:02;151881.72;;;31.19;33.99
6938;BME280;40040;42.706;23.372;2023-08-31T12:48:31;151857.91;;;31.09;34.82
6938;BME280;40040;42.706;23.372;2023-08-31T12:50:58;151839.19;;;31.02;34.38
6938;BME280;40040;42.706;23.372;2023-08-31T12:53:25;151849.16;;;31.06;34.19
6938;BME280;40040;42.706;23.372;2023-08-31T12:55:52;151829.16;;;30.98;34.48
6938;BME280;40040;42.706;23.372;2023-08-31T12:58:19;151814.13;;;30.91;34.54